Flight Information

DEPARTURE
SANTA ANA, CA
Elevation:
55
Runways:
2L/20R - 5700x150 - ASPH-G
2R/20L - 2886x75 - ASPH-G
Active PE Departure:
20L - 20R
Current PE ATIS:
I
Altimeter:
30.00
Remarks:
V F R DEPARTURES CONTACT CLEARANCE DELIVERY, ADVISE ON COURSE HEADING, ALTITUDE, AND IF FLIGHT FOLLOWING IS REQUESTED.
ATIS:
126 714-546-2279
Clearance Delivery:
118.0 121.85
Ground:
120.8 (East) 132.25 (West)
Tower:
119.9 (Rwy 2R-20L) 126.8 (Rwy 2L-20R)
DESTINATION
RIVERSIDE, CA
Elevation:
818
TPA:
1818 (est.)
Runways:
16/34 - 2850x50 - ASPH-F
9/27 - 5401x100 - ASPH-G
H1 - 60x60 - ASPH-G
Active PE Arriving:
27
Active PE Approach:
R NAVV RUNWAY 2 7 APPROACH IN USE.
Current PE ATIS:
N
Altimeter:
30.00
Remarks:
ATIS:
128.8 951-688-7257
Tower:
121
Ground:
121.7


26.8 NM52° True-14° Var38° HDG

Flight Plan:
(click to file on line)

1. Type
2. Aircraft Identification
3. Aircraft Type / Special Equipment
4. True Airspeed
kts
5. Departure Airport
(ICAO code)
6. Arriving Airport
(ICAO code)
7. Cruising Altitude
ft
8. Alternate Airport
(ICAO code)
9. Route of Flight
10. Remarks


00:00:00 Departure ATIS: Destination ATIS:

Clearance Limit:
Route:
Altitude: Expect in minutes
Frequency:
Transponder: (7500 Hijack / 7600 Lost Comms / 7700 Emergency)


KSNA 121753Z 18006KT 7SM FEW023 22/13 A3000 RMK AO2 SLP159 T02170133 10217 20178 50001
Time: 2021-05-12T17:53:00Z
1620844455
Winds: 180 @ 6 kts
Visibility: 7.0 sm
Clouds (AGL): FEW 2300
Temperature: 21.7 C
Dew Point: 13.3 C
Pressure: 30.0 in Hgbr

KRAL 121753Z 22004KT 6SM HZ CLR 21/13 A3000 RMK AO2 SLP147 T02060133 10206 20150 58004
Time: 2021-05-12T17:53:00Z
1620844456
Winds: 220 @ 4 kts
Visibility: 6.0 sm
Clouds (AGL): CLR
Temperature: 20.6 C
Dew Point: 13.3 C
Pressure: 30.0 in Hgbr


Notes:

Data extracted from FAA Digital Chart Supplement. Effective: 0901Z Thursday, APR 22, 2021 to 0901Z Thursday, JUN 17, 2021
Current ATIS data is provided courtisy of PilotEdge.